Wichita Mid Continent Airport
KICT : now visible

Airfield :











YOU CAN JOIN US ON...

 
LOGIN :

Register | Disclaimer

   EN    FR    IT 

 









Legend :    VFR   Marginal VFR   IFR   Intensive IFR   Very Intensive IFR
Visi :
Ceiling :
>= 8 km
>= 3000ft
5 to 8 km
1000 to 3000 ft
1500m to 5 km
500 to 1000 ft
800 to 1500m
200 to 500 ft
< 800m
< 200 ft
Symbols :   Thunderstorms  Fog  Heavy snow  Heavy precipitations  Wind > 20 kt






- Airport Elevation : 1333 ft
- IATA code : ICT


KICT - Wichita Mid Continent

CURRENT METAR :
  • 151600Z 05010KT 1 1/4SM -FZRA BR OVC008 M02/M03 A2990 RMK AO2 CIG 004V011 P0000 I1001 T10171033 $

EXPIRED METARs :
  • 151524Z 04012KT 1 1/4SM -FZRA BR OVC019 M02/M03 A2990 RMK AO2 TWR VIS 2 FZRAB18 P0000 I1002 T10171033 $
  • 151506Z 05013KT 1 1/2SM BR OVC019 M02/M04 A2989 RMK AO2 TWR VIS 2 T10221039 $
  • 151453Z 06013KT 2SM BR OVC021 M02/M04 A2988 RMK AO2 SNE43 SLP129 P0000 60001 I1001 I3001 T10221044 57001 $
  • 151443Z 07011KT 2SM BR BKN022 OVC037 M02/M04 A2988 RMK AO2 SFC VIS 2 1/2 SNE43 P0000 T10221044 $
  • 151353Z 05010KT 7SM -SN SCT022 OVC039 M02/M05 A2988 RMK AO2 PLE43 SLP129 P0000 T10171050
  • 151344Z 05011KT 7SM -SN FEW022 OVC039 M02/M05 A2988 RMK AO2 PLE43 P0000 T10171050

TAF KICT
Valid from the 15 at 15:00 until the 16 at 12:00 UTC


151513Z 1515/1612 06011KT P6SM OVC040
TEMPO 1515/1518 1 1/2SM -FZRASN BKN015
FM152000 02010KT 3SM -FZRASN OVC010
FM160600 01009KT P6SM BKN020
FM160800 01010KT P6SM -SN BKN015



MET'MAP, your aeronautical weather chart ! - Copyright ORBIFLY December 2007 - Disclaimer

ORBIFLY MET'MAP TEAM :

Programming & Development : Alexandra Zaïnal
Concept & original design : Baudouin d'Aumeries
Assistance for programming : Marc-Olivier Méhu
Technical & hardware support : Manuel Goepfert

Contact : metmap@orbifly.com




SOURCES & CREDITS :

   NOAA       Earth
Advisory